Aérodrome :
LOGIN :

S'inscrire | Disclaimer

   EN    FR    IT 

 










Légende :    VFR   VFR Marginal   IFR   IFR Intensif   IFR Très Intensif
Visi : 
Plafond : 
>= 8 km
>= 3000ft
5 à 8 km
1000 à 3000 ft
1500m à 5 km
500 à 1000 ft
800 à 1500m
200 à 500 ft
< 800m
< 200 ft
Symboles :   Orages  Brouillard  Fortes neiges  Fortes précipitations  Vent > 20 kt
SIGMETs :   Divers  Orages  Givrage  Turbulence  Onde Orograph.  Cendres Volcan.







- Altitude de l'aérodrome : 796 ft
- Code IATA : SYT
- Voir les cartes d'approche


LFLN - Saint-Yan

DERNIER METAR :
  • 141300Z AUTO 17010KT 9999 FEW019/// BKN034/// BKN047/// ///CB 08/05 Q1004 TEMPO 23015G30KT SHRA

METARs EXPIRÉS :
  • 141230Z AUTO 17009KT 9999 FEW016 BKN029 OVC035 08/05 Q1005 TEMPO 23015G30KT SHRA BKN030TCU
  • 141200Z AUTO 21008KT 180V250 9999 BKN031/// OVC044/// ///TCU 09/04 Q1006 TEMPO 23015G30KT SHRA
  • 141130Z AUTO 22009KT 180V260 9999 ///TCU 09/04 Q1007 TEMPO 23015G30KT SHRA
  • 141100Z AUTO 19006KT 160V220 9999 ///TCU 08/05 Q1008 TEMPO 23015G30KT SHRA BECMG BKN040
  • 141030Z AUTO 18006KT 160V220 9999 ///TCU 08/04 Q1008 TEMPO 23015G30KT SHRA BECMG BKN040

TAF TAF LFLN
Valide du 14 à 12h jusqu'au 14 à 21h UTC


141100Z 1412/1421 20010KT 9999 BKN050
TEMPO 1412/1421 23015G30KT SHRA BKN030TCU
Pas de NOTAMs connus pour ce terrain.
3 SIGMETs publiés pour la FIR Marseille (LFMM) :
 
Turbulence forte
LFMM SIGMET 7 VALID 141300/141500 LFPW
LFMM MARSEILLE FIR/UIR SEV TURB OBS AT 1300Z WI N4630 E00315 - N4630 E00530 - N4545 E00530 - N4600 E00315 - N4630 E00315 FL160/250 STNR NC=
Onde orographique forte
LFMM SIGMET 6 VALID 141300/141700 LFPW
LFMM MARSEILLE FIR/UIR SEV MTW FCST E OF E00845 SFC/FL320 STNR NC=
Turbulence forte
LFMM SIGMET 5 VALID 141000/141400 LFPW
LFMM MARSEILLE FIR/UIR SEV TURB FCST WI N4345 E00730 - N4315 E00945 - N4115 E00945 - N4115 E00845 - N4230 E00830 - N4300 E00630 - N4345 E00730 SFC/FL070 STNR NC=



MET'MAP, la Météo Aéronautique d'un coup d'oeil ! - Copyright ORBIFLY Décembre 2007 - Disclaimer

ORBIFLY MET'MAP TEAM :

Programmation & Développement : Alexandra Zaïnal
Conception & Développement : Baudouin d'Aumeries
Co-Programmation & Développement : Marc-Olivier Méhu
Soutien technique & logistique : Manuel Goepfert

Contact : metmap@orbifly.com




SOURCES & CREDITS :

   NOAA